sensor_id;sensor_type;location;lat;lon;timestamp;P1;durP1;ratioP1;P2;durP2;ratioP2
49820;SDS011;36893;52.520;13.450;2023-02-24T00:05:11;4.63;;;2.08;;
49820;SDS011;36893;52.520;13.450;2023-02-24T00:23:56;3.45;;;1.75;;
49820;SDS011;36893;52.520;13.450;2023-02-24T00:33:58;2.67;;;1.27;;
49820;SDS011;36893;52.520;13.450;2023-02-24T00:44:01;2.97;;;1.42;;
49820;SDS011;36893;52.520;13.450;2023-02-24T00:54:07;3.72;;;1.85;;
49820;SDS011;36893;52.520;13.450;2023-02-24T01:04:09;2.53;;;1.23;;
49820;SDS011;36893;52.520;13.450;2023-02-24T01:14:15;3.38;;;1.75;;
49820;SDS011;36893;52.520;13.450;2023-02-24T01:24:23;2.92;;;1.20;;
49820;SDS011;36893;52.520;13.450;2023-02-24T01:34:25;4.28;;;1.67;;
49820;SDS011;36893;52.520;13.450;2023-02-24T01:54:32;3.90;;;2.17;;
49820;SDS011;36893;52.520;13.450;2023-02-24T02:05:02;2.17;;;1.38;;
49820;SDS011;36893;52.520;13.450;2023-02-24T02:15:05;2.95;;;1.20;;
49820;SDS011;36893;52.520;13.450;2023-02-24T02:25:13;2.42;;;1.27;;
49820;SDS011;36893;52.520;13.450;2023-02-24T02:35:50;3.72;;;1.70;;
49820;SDS011;36893;52.520;13.450;2023-02-24T02:46:16;1.40;;;0.80;;
49820;SDS011;36893;52.520;13.450;2023-02-24T02:56:36;2.45;;;1.17;;
49820;SDS011;36893;52.520;13.450;2023-02-24T03:06:47;1.98;;;0.88;;
49820;SDS011;36893;52.520;13.450;2023-02-24T03:16:58;1.80;;;1.10;;
49820;SDS011;36893;52.520;13.450;2023-02-24T03:27:02;1.98;;;0.98;;
49820;SDS011;36893;52.520;13.450;2023-02-24T03:37:12;3.25;;;0.82;;
49820;SDS011;36893;52.520;13.450;2023-02-24T03:47:13;1.50;;;0.70;;
49820;SDS011;36893;52.520;13.450;2023-02-24T04:07:42;1.40;;;0.77;;
49820;SDS011;36893;52.520;13.450;2023-02-24T04:17:58;2.28;;;1.13;;
49820;SDS011;36893;52.520;13.450;2023-02-24T04:28:06;2.38;;;1.23;;
49820;SDS011;36893;52.520;13.450;2023-02-24T04:38:07;4.07;;;0.60;;
49820;SDS011;36893;52.520;13.450;2023-02-24T04:48:08;2.90;;;0.50;;
49820;SDS011;36893;52.520;13.450;2023-02-24T04:58:13;4.20;;;0.70;;
49820;SDS011;36893;52.520;13.450;2023-02-24T05:08:18;2.03;;;0.70;;
49820;SDS011;36893;52.520;13.450;2023-02-24T05:18:18;1.17;;;0.52;;
49820;SDS011;36893;52.520;13.450;2023-02-24T05:28:20;1.27;;;0.80;;
49820;SDS011;36893;52.520;13.450;2023-02-24T05:38:22;1.10;;;0.63;;
49820;SDS011;36893;52.520;13.450;2023-02-24T05:48:22;2.30;;;0.93;;
49820;SDS011;36893;52.520;13.450;2023-02-24T05:58:23;1.08;;;0.68;;
49820;SDS011;36893;52.520;13.450;2023-02-24T06:08:27;3.80;;;1.02;;
49820;SDS011;36893;52.520;13.450;2023-02-24T06:18:35;1.15;;;0.63;;
49820;SDS011;36893;52.520;13.450;2023-02-24T06:28:36;0.77;;;0.30;;
49820;SDS011;36893;52.520;13.450;2023-02-24T06:38:36;5.40;;;1.10;;
49820;SDS011;36893;52.520;13.450;2023-02-24T06:48:38;0.50;;;0.50;;
49820;SDS011;36893;52.520;13.450;2023-02-24T06:58:40;1.30;;;0.83;;
49820;SDS011;36893;52.520;13.450;2023-02-24T07:08:42;0.50;;;0.37;;
49820;SDS011;36893;52.520;13.450;2023-02-24T07:18:43;0.27;;;0.27;;
49820;SDS011;36893;52.520;13.450;2023-02-24T07:28:49;1.50;;;0.75;;
49820;SDS011;36893;52.520;13.450;2023-02-24T07:38:54;1.05;;;0.47;;
49820;SDS011;36893;52.520;13.450;2023-02-24T07:49:01;0.45;;;0.20;;
49820;SDS011;36893;52.520;13.450;2023-02-24T07:59:03;0.68;;;0.15;;
49820;SDS011;36893;52.520;13.450;2023-02-24T08:09:08;0.77;;;0.60;;
49820;SDS011;36893;52.520;13.450;2023-02-24T08:19:19;1.80;;;0.50;;
49820;SDS011;36893;52.520;13.450;2023-02-24T08:29:20;1.30;;;0.63;;
49820;SDS011;36893;52.520;13.450;2023-02-24T08:39:21;1.03;;;0.30;;
49820;SDS011;36893;52.520;13.450;2023-02-24T08:49:21;3.27;;;0.50;;
49820;SDS011;36893;52.520;13.450;2023-02-24T08:59:27;0.20;;;0.20;;
49820;SDS011;36893;52.520;13.450;2023-02-24T09:09:36;2.33;;;0.88;;
49820;SDS011;36893;52.520;13.450;2023-02-24T09:19:45;2.05;;;0.77;;
49820;SDS011;36893;52.520;13.450;2023-02-24T09:29:50;2.13;;;0.88;;
49820;SDS011;36893;52.520;13.450;2023-02-24T09:39:51;8.13;;;1.17;;
49820;SDS011;36893;52.520;13.450;2023-02-24T09:49:54;3.28;;;0.95;;
49820;SDS011;36893;52.520;13.450;2023-02-24T10:00:05;0.95;;;0.35;;
49820;SDS011;36893;52.520;13.450;2023-02-24T10:10:33;4.50;;;0.65;;
49820;SDS011;36893;52.520;13.450;2023-02-24T10:20:38;1.25;;;0.50;;
49820;SDS011;36893;52.520;13.450;2023-02-24T10:31:00;4.95;;;0.68;;
49820;SDS011;36893;52.520;13.450;2023-02-24T10:41:23;2.53;;;0.50;;
49820;SDS011;36893;52.520;13.450;2023-02-24T10:51:29;1.50;;;0.65;;
49820;SDS011;36893;52.520;13.450;2023-02-24T11:01:37;2.13;;;0.73;;
49820;SDS011;36893;52.520;13.450;2023-02-24T11:11:45;1.35;;;0.60;;
49820;SDS011;36893;52.520;13.450;2023-02-24T11:22:05;4.22;;;0.85;;
49820;SDS011;36893;52.520;13.450;2023-02-24T11:42:38;1.35;;;0.90;;
49820;SDS011;36893;52.520;13.450;2023-02-24T11:53:01;1.80;;;0.90;;
49820;SDS011;36893;52.520;13.450;2023-02-24T12:03:13;1.50;;;0.60;;
49820;SDS011;36893;52.520;13.450;2023-02-24T12:13:34;2.67;;;1.23;;
49820;SDS011;36893;52.520;13.450;2023-02-24T12:23:45;0.93;;;0.60;;
49820;SDS011;36893;52.520;13.450;2023-02-24T12:54:23;2.13;;;0.60;;
49820;SDS011;36893;52.520;13.450;2023-02-24T13:15:18;1.67;;;0.63;;
49820;SDS011;36893;52.520;13.450;2023-02-24T13:25:32;3.67;;;0.93;;
49820;SDS011;36893;52.520;13.450;2023-02-24T13:35:35;2.38;;;1.17;;
49820;SDS011;36893;52.520;13.450;2023-02-24T13:45:37;2.03;;;0.80;;
49820;SDS011;36893;52.520;13.450;2023-02-24T14:06:14;5.32;;;1.02;;
49820;SDS011;36893;52.520;13.450;2023-02-24T14:16:23;6.25;;;1.23;;
49820;SDS011;36893;52.520;13.450;2023-02-24T14:26:29;2.92;;;1.55;;
49820;SDS011;36893;52.520;13.450;2023-02-24T14:36:47;3.13;;;0.75;;
49820;SDS011;36893;52.520;13.450;2023-02-24T14:46:56;2.17;;;0.65;;
49820;SDS011;36893;52.520;13.450;2023-02-24T14:56:59;1.23;;;0.80;;
49820;SDS011;36893;52.520;13.450;2023-02-24T15:07:02;1.85;;;0.93;;
49820;SDS011;36893;52.520;13.450;2023-02-24T15:17:09;1.08;;;0.80;;
49820;SDS011;36893;52.520;13.450;2023-02-24T15:37:27;7.13;;;0.80;;
49820;SDS011;36893;52.520;13.450;2023-02-24T15:47:40;0.63;;;0.40;;
49820;SDS011;36893;52.520;13.450;2023-02-24T15:57:44;2.53;;;0.85;;
49820;SDS011;36893;52.520;13.450;2023-02-24T16:07:46;6.10;;;0.80;;
49820;SDS011;36893;52.520;13.450;2023-02-24T16:17:47;3.15;;;1.02;;
49820;SDS011;36893;52.520;13.450;2023-02-24T16:27:49;5.57;;;0.82;;
49820;SDS011;36893;52.520;13.450;2023-02-24T16:37:56;0.95;;;0.60;;
49820;SDS011;36893;52.520;13.450;2023-02-24T16:47:57;0.80;;;0.53;;
49820;SDS011;36893;52.520;13.450;2023-02-24T16:57:59;2.83;;;1.03;;
49820;SDS011;36893;52.520;13.450;2023-02-24T17:08:00;3.90;;;1.13;;
49820;SDS011;36893;52.520;13.450;2023-02-24T17:18:00;3.07;;;1.47;;
49820;SDS011;36893;52.520;13.450;2023-02-24T17:28:01;6.67;;;1.40;;
49820;SDS011;36893;52.520;13.450;2023-02-24T17:38:02;3.73;;;1.50;;
49820;SDS011;36893;52.520;13.450;2023-02-24T17:48:02;1.77;;;1.10;;
49820;SDS011;36893;52.520;13.450;2023-02-24T17:58:03;3.23;;;0.90;;
49820;SDS011;36893;52.520;13.450;2023-02-24T18:08:04;1.50;;;0.90;;
49820;SDS011;36893;52.520;13.450;2023-02-24T18:18:04;1.33;;;0.87;;
49820;SDS011;36893;52.520;13.450;2023-02-24T18:28:05;4.93;;;0.80;;
49820;SDS011;36893;52.520;13.450;2023-02-24T18:38:06;6.63;;;0.93;;
49820;SDS011;36893;52.520;13.450;2023-02-24T18:48:06;1.47;;;0.90;;
49820;SDS011;36893;52.520;13.450;2023-02-24T18:58:07;1.43;;;0.43;;
49820;SDS011;36893;52.520;13.450;2023-02-24T19:08:08;2.27;;;0.80;;
49820;SDS011;36893;52.520;13.450;2023-02-24T19:18:08;1.87;;;0.93;;
49820;SDS011;36893;52.520;13.450;2023-02-24T19:28:09;2.55;;;0.90;;
49820;SDS011;36893;52.520;13.450;2023-02-24T19:38:13;7.90;;;1.03;;
49820;SDS011;36893;52.520;13.450;2023-02-24T19:48:16;2.03;;;0.80;;
49820;SDS011;36893;52.520;13.450;2023-02-24T19:58:17;2.67;;;0.93;;
49820;SDS011;36893;52.520;13.450;2023-02-24T20:08:17;6.63;;;0.80;;
49820;SDS011;36893;52.520;13.450;2023-02-24T20:18:18;13.93;;;4.73;;
49820;SDS011;36893;52.520;13.450;2023-02-24T20:28:19;9.07;;;3.00;;
49820;SDS011;36893;52.520;13.450;2023-02-24T20:38:20;10.90;;;2.97;;
49820;SDS011;36893;52.520;13.450;2023-02-24T20:48:21;7.72;;;2.83;;
49820;SDS011;36893;52.520;13.450;2023-02-24T20:58:21;10.77;;;2.63;;
49820;SDS011;36893;52.520;13.450;2023-02-24T21:08:23;11.85;;;2.35;;
49820;SDS011;36893;52.520;13.450;2023-02-24T21:18:24;5.60;;;2.53;;
49820;SDS011;36893;52.520;13.450;2023-02-24T21:28:25;3.40;;;1.40;;
49820;SDS011;36893;52.520;13.450;2023-02-24T21:38:25;6.47;;;1.90;;
49820;SDS011;36893;52.520;13.450;2023-02-24T21:48:26;7.10;;;2.33;;
49820;SDS011;36893;52.520;13.450;2023-02-24T21:58:27;3.83;;;1.77;;
49820;SDS011;36893;52.520;13.450;2023-02-24T22:08:27;4.77;;;1.23;;
49820;SDS011;36893;52.520;13.450;2023-02-24T22:18:28;5.87;;;1.87;;
49820;SDS011;36893;52.520;13.450;2023-02-24T22:28:29;5.27;;;1.57;;
49820;SDS011;36893;52.520;13.450;2023-02-24T22:38:31;2.20;;;1.05;;
49820;SDS011;36893;52.520;13.450;2023-02-24T22:48:32;2.28;;;1.40;;
49820;SDS011;36893;52.520;13.450;2023-02-24T22:58:35;3.57;;;1.00;;
49820;SDS011;36893;52.520;13.450;2023-02-24T23:08:36;5.00;;;1.92;;
49820;SDS011;36893;52.520;13.450;2023-02-24T23:18:38;2.50;;;1.13;;
49820;SDS011;36893;52.520;13.450;2023-02-24T23:28:40;9.35;;;2.13;;
49820;SDS011;36893;52.520;13.450;2023-02-24T23:38:41;1.93;;;1.03;;
49820;SDS011;36893;52.520;13.450;2023-02-24T23:48:42;4.05;;;0.85;;
49820;SDS011;36893;52.520;13.450;2023-02-24T23:58:43;6.47;;;1.90;;
